Time;durP1;ratioP1;P1;durP2;ratioP2;P2;SDS_P1;SDS_P2;PMS_P1;PMS_P2;Temp;Humidity;BMP_temperature;BMP_pressure;BME280_temperature;BME280_humidity;BME280_pressure;Samples;Min_cycle;Max_cycle;Signal;HPM_P1;HPM_P2
2021/07/09 00:02:26;;;;;;;5.60;3.47;;;;;;;17.03;100.00;101018.66;5099762;29;20034;-76
2021/07/09 00:04:57;;;;;;;9.15;3.55;;;;;;;17.10;100.00;101020.00;5109627;29;20525;-78
2021/07/09 00:07:27;;;;;;;11.18;4.00;;;;;;;17.07;100.00;101010.47;5115287;29;20028;-77
2021/07/09 00:09:57;;;;;;;5.95;3.88;;;;;;;17.11;100.00;101001.44;5110950;29;20035;-77
2021/07/09 00:12:28;;;;;;;6.53;3.78;;;;;;;17.12;100.00;101002.31;5114663;28;20042;-77
2021/07/09 00:14:58;;;;;;;6.88;3.80;;;;;;;17.23;100.00;101006.06;5112593;29;20704;-78
2021/07/09 00:17:29;;;;;;;6.70;3.50;;;;;;;17.28;100.00;101014.56;5117521;29;20047;-78
2021/07/09 00:19:59;;;;;;;7.57;3.47;;;;;;;17.31;100.00;101008.25;5117628;29;20309;-78
2021/07/09 00:22:31;;;;;;;7.57;3.10;;;;;;;17.39;100.00;101012.22;5116676;28;20051;-78
2021/07/09 00:25:02;;;;;;;9.45;3.03;;;;;;;17.08;100.00;101003.38;5110261;29;20375;-77
2021/07/09 00:27:33;;;;;;;10.73;2.95;;;;;;;16.98;100.00;101005.69;5111239;29;20440;-78
2021/07/09 00:30:04;;;;;;;16.40;3.13;;;;;;;16.72;100.00;101015.13;5115221;28;20057;-78
2021/07/09 00:32:34;;;;;;;13.63;3.38;;;;;;;16.58;100.00;101005.28;5113237;29;20272;-77
2021/07/09 00:35:04;;;;;;;9.63;3.50;;;;;;;16.52;100.00;101005.63;5115691;29;20034;-78
2021/07/09 00:37:35;;;;;;;8.32;3.50;;;;;;;16.65;100.00;100996.13;5113213;28;20370;-78
2021/07/09 00:40:07;;;;;;;13.20;4.55;;;;;;;16.74;100.00;101000.88;5114804;28;20031;-78
2021/07/09 00:42:37;;;;;;;11.48;3.60;;;;;;;16.72;100.00;100992.19;5112055;29;20024;-78
2021/07/09 00:45:09;;;;;;;14.35;3.55;;;;;;;16.20;100.00;100987.09;5111830;29;20027;-77
2021/07/09 00:47:44;;;;;;;14.50;3.97;;;;;;;16.29;100.00;100981.34;5113787;28;20056;-77
2021/07/09 00:50:15;;;;;;;17.13;3.88;;;;;;;16.20;100.00;100987.94;5114235;28;20118;-77
2021/07/09 00:52:46;;;;;;;12.50;4.18;;;;;;;16.31;100.00;100985.59;5114674;29;20111;-78
2021/07/09 00:55:17;;;;;;;9.48;3.22;;;;;;;16.28;100.00;100990.19;5107921;28;20039;-78
2021/07/09 00:57:50;;;;;;;7.95;3.30;;;;;;;16.36;100.00;100995.97;5110933;29;20067;-78
2021/07/09 01:00:22;;;;;;;9.60;3.63;;;;;;;16.14;100.00;101008.50;5112395;28;20601;-78
2021/07/09 01:02:54;;;;;;;10.07;3.67;;;;;;;16.06;100.00;101006.25;5115320;29;20034;-78
2021/07/09 01:05:25;;;;;;;9.93;3.55;;;;;;;16.17;100.00;101009.22;5112816;28;20054;-78
2021/07/09 01:07:55;;;;;;;8.15;3.22;;;;;;;16.45;100.00;100998.09;5116522;29;20035;-78
2021/07/09 01:10:26;;;;;;;11.43;3.88;;;;;;;16.36;100.00;100996.78;5112441;28;20032;-78
2021/07/09 01:12:56;;;;;;;17.00;4.22;;;;;;;16.26;100.00;100999.97;5115304;28;20055;-78
2021/07/09 01:15:27;;;;;;;8.60;3.08;;;;;;;16.34;100.00;100998.63;5111868;29;20118;-78
2021/07/09 01:17:57;;;;;;;11.48;3.30;;;;;;;16.49;100.00;101010.19;5117840;29;20027;-78
2021/07/09 01:20:27;;;;;;;7.28;3.20;;;;;;;16.51;100.00;101013.59;5117391;28;20031;-78
2021/07/09 01:22:58;;;;;;;14.50;3.50;;;;;;;16.56;100.00;101017.69;5113602;29;20666;-78
2021/07/09 01:25:30;;;;;;;8.98;3.47;;;;;;;16.49;100.00;101011.06;5104937;29;20496;-78
2021/07/09 01:28:05;;;;;;;6.47;3.25;;;;;;;16.40;100.00;101016.81;5117221;28;20114;-78
2021/07/09 01:30:37;;;;;;;9.40;3.47;;;;;;;16.33;100.00;101004.84;5117509;28;20170;-78
2021/07/09 01:33:08;;;;;;;10.00;3.58;;;;;;;16.34;100.00;100995.13;5118255;28;20043;-78
2021/07/09 01:35:38;;;;;;;6.00;3.17;;;;;;;16.44;100.00;100999.91;5117936;29;20086;-78
2021/07/09 01:38:08;;;;;;;4.72;3.00;;;;;;;16.67;100.00;101004.81;5119800;28;20059;-78
2021/07/09 01:40:39;;;;;;;8.27;3.40;;;;;;;16.43;100.00;101003.47;5118864;28;20028;-78
2021/07/09 01:43:10;;;;;;;8.45;3.20;;;;;;;16.72;100.00;101010.69;5118597;28;20093;-77
2021/07/09 01:45:40;;;;;;;16.63;4.03;;;;;;;16.50;100.00;101017.16;5123046;29;20508;-77
2021/07/09 01:48:10;;;;;;;23.83;4.68;;;;;;;16.33;100.00;101025.09;5115585;29;20485;-77
2021/07/09 01:50:40;;;;;;;12.73;4.53;;;;;;;16.39;100.00;101023.00;5109485;28;20189;-78
2021/07/09 01:53:11;;;;;;;12.70;4.28;;;;;;;16.51;100.00;101027.66;5112748;29;20557;-77
2021/07/09 01:55:41;;;;;;;11.80;4.40;;;;;;;16.32;100.00;101029.53;5102766;29;20032;-77
2021/07/09 01:58:12;;;;;;;13.85;4.07;;;;;;;16.29;100.00;101026.19;5102664;29;20035;-77
2021/07/09 02:00:42;;;;;;;12.00;4.13;;;;;;;16.29;100.00;101018.25;5106027;29;20035;-77
2021/07/09 02:03:13;;;;;;;18.05;4.50;;;;;;;16.37;100.00;101009.06;5107204;29;20039;-77
2021/07/09 02:05:43;;;;;;;12.35;4.40;;;;;;;16.33;100.00;101023.31;5101961;28;20036;-78
2021/07/09 02:08:14;;;;;;;12.32;4.68;;;;;;;16.32;100.00;101008.41;5112317;29;20066;-78
2021/07/09 02:10:44;;;;;;;11.55;3.83;;;;;;;16.48;100.00;101006.72;5107205;28;20040;-77
2021/07/09 02:13:15;;;;;;;9.65;4.47;;;;;;;16.57;100.00;101008.84;5106952;29;20103;-77
2021/07/09 02:15:46;;;;;;;12.55;4.60;;;;;;;16.78;100.00;101002.44;5112146;29;20035;-77
2021/07/09 02:18:17;;;;;;;9.48;4.40;;;;;;;16.64;100.00;100999.69;5117215;29;20043;-77
2021/07/09 02:20:47;;;;;;;8.10;4.43;;;;;;;16.55;100.00;100989.63;5114877;29;20031;-76
2021/07/09 02:23:18;;;;;;;12.75;4.85;;;;;;;16.62;100.00;100996.28;5105212;29;20135;-77
2021/07/09 02:25:48;;;;;;;13.10;5.65;;;;;;;16.37;100.00;101001.13;5112260;29;20035;-78
2021/07/09 02:28:18;;;;;;;12.80;5.15;;;;;;;16.33;100.00;101010.13;5108347;28;20023;-77
2021/07/09 02:30:49;;;;;;;13.52;5.13;;;;;;;16.39;100.00;101007.19;5107423;29;20104;-77
2021/07/09 02:33:19;;;;;;;10.63;4.78;;;;;;;16.48;100.00;101000.56;5108579;29;20031;-78
2021/07/09 02:35:49;;;;;;;12.43;5.27;;;;;;;16.45;100.00;100998.97;5105151;29;20035;-77
2021/07/09 02:38:20;;;;;;;11.60;4.35;;;;;;;16.62;100.00;101003.34;5112134;29;20365;-78
2021/07/09 02:40:50;;;;;;;15.02;4.93;;;;;;;16.80;100.00;101001.41;5106447;29;20059;-79
2021/07/09 02:43:20;;;;;;;9.30;4.97;;;;;;;16.85;100.00;100994.13;5110722;29;20077;-78
2021/07/09 02:45:50;;;;;;;12.13;5.13;;;;;;;16.87;100.00;100991.38;5108393;29;20035;-78
2021/07/09 02:48:21;;;;;;;26.88;5.00;;;;;;;16.96;100.00;100996.16;5108646;29;20039;-77
2021/07/09 02:50:51;;;;;;;27.30;5.20;;;;;;;17.00;100.00;100995.88;5108003;29;20658;-77
2021/07/09 02:53:21;;;;;;;18.52;4.88;;;;;;;16.88;100.00;100990.44;5108807;29;20039;-78
2021/07/09 02:55:51;;;;;;;22.05;5.45;;;;;;;16.57;100.00;100990.38;5110380;29;20084;-78
2021/07/09 02:58:22;;;;;;;22.02;5.25;;;;;;;16.60;100.00;100992.00;5101241;29;20308;-77
2021/07/09 03:00:52;;;;;;;13.53;4.93;;;;;;;16.59;100.00;100990.31;5101576;29;20074;-78
2021/07/09 03:03:23;;;;;;;12.35;4.50;;;;;;;16.79;100.00;100972.47;5096147;29;20306;-78
2021/07/09 03:05:53;;;;;;;13.48;4.30;;;;;;;16.99;100.00;100959.84;5100543;29;20643;-76
2021/07/09 03:08:23;;;;;;;11.93;4.43;;;;;;;17.14;100.00;100961.66;5097661;28;20087;-78
2021/07/09 03:10:53;;;;;;;11.83;5.33;;;;;;;16.82;100.00;100964.38;5100228;28;20037;-78
2021/07/09 03:13:24;;;;;;;9.20;4.57;;;;;;;16.84;100.00;100954.59;5097366;28;20292;-78
2021/07/09 03:15:54;;;;;;;11.63;4.93;;;;;;;16.82;100.00;100956.47;5099799;29;20275;-79
2021/07/09 03:18:24;;;;;;;17.45;5.07;;;;;;;16.60;100.00;100955.94;5102301;28;20279;-78
2021/07/09 03:20:55;;;;;;;16.67;4.90;;;;;;;16.61;100.00;100957.63;5104304;28;20409;-79
2021/07/09 03:23:25;;;;;;;13.57;4.53;;;;;;;16.65;100.00;100951.25;5107247;29;20043;-77
2021/07/09 03:25:58;;;;;;;19.00;5.32;;;;;;;16.55;100.00;100936.84;5108853;28;20031;-78
2021/07/09 03:28:28;;;;;;;12.10;4.57;;;;;;;16.69;100.00;100936.09;5095668;29;20066;-77
2021/07/09 03:30:58;;;;;;;15.77;4.78;;;;;;;16.88;100.00;100929.69;5094268;29;20513;-78
2021/07/09 03:33:28;;;;;;;12.70;3.92;;;;;;;17.04;100.00;100920.00;5094339;29;20035;-78
2021/07/09 03:35:59;;;;;;;17.00;4.60;;;;;;;17.15;100.00;100922.88;5099146;28;20034;-79
2021/07/09 03:38:29;;;;;;;15.32;4.85;;;;;;;17.04;100.00;100925.28;5100173;29;20046;-77
2021/07/09 03:41:00;;;;;;;21.65;4.93;;;;;;;16.82;100.00;100915.06;5098479;29;20028;-77
2021/07/09 03:43:30;;;;;;;13.80;4.90;;;;;;;16.86;100.00;100910.47;5098000;29;20020;-78
2021/07/09 03:46:00;;;;;;;22.48;6.22;;;;;;;16.99;100.00;100906.19;5112008;28;20027;-79
2021/07/09 03:48:30;;;;;;;18.50;6.50;;;;;;;17.18;100.00;100898.94;5098857;29;20079;-77
2021/07/09 03:51:01;;;;;;;13.40;7.00;;;;;;;17.28;100.00;100902.75;5096425;29;20784;-78
2021/07/09 03:53:31;;;;;;;13.85;7.43;;;;;;;17.32;100.00;100897.19;5097884;29;20051;-77
2021/07/09 03:56:02;;;;;;;12.73;7.80;;;;;;;17.46;100.00;100901.72;5104669;28;20035;-78
2021/07/09 03:58:33;;;;;;;10.73;6.90;;;;;;;17.66;100.00;100901.41;5101463;29;20166;-78
2021/07/09 04:01:04;;;;;;;14.07;7.85;;;;;;;17.71;100.00;100901.97;5098425;28;20035;-77
2021/07/09 04:03:34;;;;;;;12.82;8.30;;;;;;;17.95;100.00;100909.28;5110743;29;20027;-78
2021/07/09 04:06:05;;;;;;;15.88;10.32;;;;;;;18.00;100.00;100901.91;5112299;29;20043;-78
2021/07/09 04:08:36;;;;;;;21.70;11.70;;;;;;;17.93;100.00;100891.78;5115371;28;20075;-78
2021/07/09 04:11:06;;;;;;;21.52;15.05;;;;;;;18.03;100.00;100890.31;5113037;29;20130;-77
2021/07/09 04:13:37;;;;;;;21.20;14.93;;;;;;;18.00;100.00;100887.84;5114699;28;20035;-79
2021/07/09 04:16:07;;;;;;;24.83;16.95;;;;;;;17.89;100.00;100890.28;5114073;29;20027;-79
2021/07/09 04:18:38;;;;;;;20.27;15.93;;;;;;;18.03;100.00;100877.06;5115631;28;20074;-77
2021/07/09 04:21:08;;;;;;;20.23;14.50;;;;;;;17.88;100.00;100881.50;5115062;29;20071;-78
2021/07/09 04:23:38;;;;;;;22.50;13.20;;;;;;;17.89;100.00;100882.34;5116069;28;20034;-78
2021/07/09 04:26:09;;;;;;;19.42;13.48;;;;;;;17.99;100.00;100881.69;5107495;29;20043;-78
2021/07/09 04:28:39;;;;;;;17.35;11.75;;;;;;;17.96;100.00;100889.81;5114994;29;20027;-78
2021/07/09 04:31:10;;;;;;;14.35;11.48;;;;;;;18.11;100.00;100888.03;5112730;28;20445;-77
2021/07/09 04:33:43;;;;;;;16.30;10.45;;;;;;;18.24;100.00;100891.63;5114895;29;20031;-79
2021/07/09 04:36:13;;;;;;;12.18;9.32;;;;;;;18.19;100.00;100891.06;5115694;28;20039;-79
2021/07/09 04:38:44;;;;;;;13.75;9.27;;;;;;;18.11;100.00;100903.91;5115901;29;20031;-79
2021/07/09 04:41:14;;;;;;;15.27;9.23;;;;;;;18.20;100.00;100895.41;5111549;28;20040;-79
2021/07/09 04:43:44;;;;;;;13.45;8.57;;;;;;;18.29;100.00;100905.44;5111120;29;20139;-79
2021/07/09 04:46:15;;;;;;;11.98;8.25;;;;;;;18.34;100.00;100898.94;5115852;28;20054;-78
2021/07/09 04:48:46;;;;;;;13.43;8.38;;;;;;;18.03;100.00;100908.81;5116831;29;20063;-79
2021/07/09 04:51:16;;;;;;;9.43;7.32;;;;;;;18.08;100.00;100909.38;5114840;28;20071;-79
2021/07/09 04:53:46;;;;;;;11.52;8.27;;;;;;;18.30;100.00;100921.25;5115144;29;20031;-78
2021/07/09 04:56:16;;;;;;;12.40;7.93;;;;;;;18.28;100.00;100930.22;5102790;29;20058;-77
2021/07/09 04:58:47;;;;;;;14.38;8.77;;;;;;;18.38;100.00;100918.13;5111656;29;20295;-78
2021/07/09 05:01:17;;;;;;;9.70;7.70;;;;;;;18.28;100.00;100924.91;5116114;28;20039;-78
2021/07/09 05:03:47;;;;;;;12.32;8.48;;;;;;;18.33;100.00;100930.81;5118966;28;20024;-77
2021/07/09 05:06:17;;;;;;;12.93;8.67;;;;;;;18.34;100.00;100925.41;5115328;29;20068;-79
2021/07/09 05:08:48;;;;;;;11.32;8.48;;;;;;;18.39;100.00;100927.78;5119464;28;20279;-78
2021/07/09 05:11:18;;;;;;;11.20;8.60;;;;;;;18.34;100.00;100932.50;5117851;28;20031;-79
2021/07/09 05:13:48;;;;;;;15.77;9.32;;;;;;;18.22;100.00;100938.50;5120521;29;20030;-78
2021/07/09 05:16:19;;;;;;;15.88;8.68;;;;;;;18.33;100.00;100936.09;5118226;29;20047;-79
2021/07/09 05:18:49;;;;;;;14.48;9.73;;;;;;;18.27;100.00;100941.72;5120810;28;20043;-78
2021/07/09 05:21:20;;;;;;;15.75;8.85;;;;;;;18.43;100.00;100931.91;5116496;29;20028;-78
2021/07/09 05:23:50;;;;;;;11.68;8.90;;;;;;;18.35;100.00;100931.56;5118168;29;20031;-79
2021/07/09 05:26:21;;;;;;;12.20;8.90;;;;;;;18.45;100.00;100935.31;5111965;29;20071;-79
2021/07/09 05:28:52;;;;;;;14.43;9.70;;;;;;;18.40;100.00;100937.41;5119362;28;20054;-79
2021/07/09 05:31:22;;;;;;;13.82;8.88;;;;;;;18.48;100.00;100936.00;5118852;29;20101;-79
2021/07/09 05:33:53;;;;;;;14.45;9.35;;;;;;;18.45;100.00;100932.66;5121178;29;20027;-79
2021/07/09 05:36:23;;;;;;;14.25;9.25;;;;;;;18.35;100.00;100940.31;5117126;28;20452;-79
2021/07/09 05:38:54;;;;;;;15.55;9.52;;;;;;;18.38;100.00;100934.00;5120993;28;20106;-78
2021/07/09 05:41:24;;;;;;;14.90;9.38;;;;;;;18.53;100.00;100928.59;5117624;29;20023;-79
2021/07/09 05:43:54;;;;;;;10.70;8.65;;;;;;;18.53;100.00;100933.91;5118833;29;20605;-79
2021/07/09 05:46:26;;;;;;;15.32;8.60;;;;;;;18.59;100.00;100924.72;5115134;29;20031;-79
2021/07/09 05:48:56;;;;;;;14.15;8.55;;;;;;;18.74;100.00;100925.47;5109221;28;20441;-79
2021/07/09 05:51:27;;;;;;;14.15;9.23;;;;;;;18.67;100.00;100925.09;5113227;29;20039;-79
2021/07/09 05:53:57;;;;;;;13.95;8.45;;;;;;;18.84;100.00;100926.59;5113558;29;20028;-79
2021/07/09 05:56:28;;;;;;;11.63;8.07;;;;;;;18.83;100.00;100924.03;5111273;29;20023;-79
2021/07/09 05:58:58;;;;;;;13.32;8.77;;;;;;;18.80;100.00;100922.41;5120832;28;20050;-79
2021/07/09 06:01:28;;;;;;;16.60;8.73;;;;;;;18.89;100.00;100929.78;5116876;29;20027;-79
2021/07/09 06:03:59;;;;;;;14.57;8.40;;;;;;;19.03;100.00;100927.09;5120550;28;20030;-79
2021/07/09 06:06:29;;;;;;;12.32;8.40;;;;;;;18.94;100.00;100930.34;5115739;29;20418;-79
2021/07/09 06:08:59;;;;;;;15.27;8.37;;;;;;;18.66;100.00;100928.72;5120136;28;20027;-79
2021/07/09 06:11:30;;;;;;;13.43;8.38;;;;;;;18.91;100.00;100935.00;5116939;29;20418;-79
2021/07/09 06:14:00;;;;;;;10.18;7.72;;;;;;;18.92;100.00;100940.19;5120320;28;20023;-79
2021/07/09 06:16:31;;;;;;;12.03;7.63;;;;;;;18.77;100.00;100930.56;5118090;29;20106;-79
2021/07/09 06:19:02;;;;;;;12.55;9.32;;;;;;;18.53;100.00;100941.84;5119964;28;20781;-78
2021/07/09 06:21:32;;;;;;;17.77;9.13;;;;;;;18.83;100.00;100939.91;5116079;29;20035;-79
2021/07/09 06:24:03;;;;;;;13.23;8.85;;;;;;;18.92;100.00;100942.81;5117959;28;20054;-79
2021/07/09 06:26:33;;;;;;;12.00;8.45;;;;;;;19.10;100.00;100936.34;5111606;28;20557;-79
2021/07/09 06:29:04;;;;;;;16.58;9.07;;;;;;;19.28;100.00;100937.84;5119190;28;20054;-79
2021/07/09 06:31:34;;;;;;;13.75;9.00;;;;;;;18.94;100.00;100938.28;5116941;29;20027;-79
2021/07/09 06:34:04;;;;;;;13.65;10.05;;;;;;;18.61;100.00;100941.38;5119368;28;20462;-79
2021/07/09 06:36:35;;;;;;;17.98;9.40;;;;;;;18.76;100.00;100947.41;5118636;29;20505;-79
2021/07/09 06:39:05;;;;;;;12.18;9.77;;;;;;;18.75;100.00;100945.69;5118588;28;20031;-79
2021/07/09 06:41:36;;;;;;;11.50;8.65;;;;;;;18.71;100.00;100945.16;5113248;29;20030;-79
2021/07/09 06:44:06;;;;;;;16.20;9.05;;;;;;;18.76;100.00;100955.34;5105602;28;20031;-78
2021/07/09 06:46:36;;;;;;;12.27;8.70;;;;;;;18.92;100.00;100952.59;5111927;29;20505;-79
2021/07/09 06:49:07;;;;;;;12.63;8.20;;;;;;;19.23;100.00;100947.03;5112719;29;20027;-79
2021/07/09 06:51:37;;;;;;;10.50;8.00;;;;;;;19.31;100.00;100942.94;5110614;28;20226;-78
2021/07/09 06:54:08;;;;;;;12.68;8.57;;;;;;;19.53;100.00;100943.25;5111469;29;20403;-79
2021/07/09 06:56:38;;;;;;;13.82;9.02;;;;;;;19.65;100.00;100945.06;5114551;29;20023;-78
2021/07/09 06:59:08;;;;;;;12.23;8.60;;;;;;;19.65;100.00;100945.06;5132130;28;20082;-79
2021/07/09 07:01:38;;;;;;;15.03;9.40;;;;;;;19.70;100.00;100947.41;5118855;28;20343;-79
2021/07/09 07:04:09;;;;;;;12.77;9.20;;;;;;;19.67;100.00;100945.81;5117747;29;20291;-79
2021/07/09 07:06:39;;;;;;;11.48;7.80;;;;;;;19.85;100.00;100949.88;5117898;28;20029;-79
2021/07/09 07:09:10;;;;;;;12.93;8.52;;;;;;;19.86;100.00;100946.28;5116822;29;20066;-78
2021/07/09 07:11:40;;;;;;;12.47;9.40;;;;;;;19.90;100.00;100936.28;5114335;29;20019;-78
2021/07/09 07:14:10;;;;;;;12.87;8.47;;;;;;;19.90;100.00;100955.72;5115782;29;20299;-79
2021/07/09 07:16:41;;;;;;;13.90;8.90;;;;;;;20.09;100.00;100942.94;5116060;28;20796;-79
2021/07/09 07:19:11;;;;;;;15.63;9.38;;;;;;;19.97;100.00;100941.06;5131539;28;20090;-78
2021/07/09 07:21:41;;;;;;;12.03;8.97;;;;;;;20.15;100.00;100942.50;5116701;29;20402;-79
2021/07/09 07:24:12;;;;;;;12.27;9.23;;;;;;;20.08;100.00;100941.25;5112202;29;20283;-77
2021/07/09 07:26:42;;;;;;;12.93;8.70;;;;;;;20.21;100.00;100939.44;5111121;29;20042;-78
2021/07/09 07:29:12;;;;;;;12.50;9.30;;;;;;;20.31;100.00;100943.13;5116723;28;20041;-78
2021/07/09 07:31:43;;;;;;;10.85;9.10;;;;;;;20.36;100.00;100941.03;5115173;29;20023;-79
2021/07/09 07:34:13;;;;;;;11.50;8.63;;;;;;;20.30;100.00;100943.28;5115355;28;20082;-79
2021/07/09 07:36:43;;;;;;;14.97;9.40;;;;;;;20.41;100.00;100932.72;5116255;29;20028;-78
2021/07/09 07:39:14;;;;;;;12.27;8.82;;;;;;;20.52;100.00;100928.38;5116963;28;20291;-78
2021/07/09 07:41:44;;;;;;;14.45;9.90;;;;;;;20.44;100.00;100925.41;5116685;29;20028;-78
2021/07/09 07:44:14;;;;;;;15.80;8.93;;;;;;;20.39;100.00;100924.88;5116383;28;20557;-79
2021/07/09 07:46:48;;;;;;;12.37;8.70;;;;;;;20.50;100.00;100932.94;5117700;29;20302;-80
2021/07/09 07:49:21;;;;;;;11.63;8.50;;;;;;;20.48;100.00;100929.53;5114231;28;20279;-78
2021/07/09 07:51:53;;;;;;;9.52;7.85;;;;;;;20.47;100.00;100927.00;5113078;28;20417;-78
2021/07/09 07:54:23;;;;;;;11.68;8.65;;;;;;;20.49;100.00;100930.41;5110879;28;20537;-78
2021/07/09 07:56:54;;;;;;;10.65;8.40;;;;;;;20.42;100.00;100937.06;5110676;29;20046;-78
2021/07/09 07:59:24;;;;;;;11.40;8.38;;;;;;;20.52;100.00;100932.84;5113825;28;20307;-80
2021/07/09 08:01:54;;;;;;;10.70;8.07;;;;;;;20.49;100.00;100936.53;5113727;28;20074;-77
2021/07/09 08:04:25;;;;;;;10.82;7.10;;;;;;;20.58;100.00;100929.72;5114505;28;20030;-79
2021/07/09 08:06:55;;;;;;;11.18;7.22;;;;;;;20.42;100.00;100940.59;5116827;28;20102;-79
2021/07/09 08:09:26;;;;;;;9.52;8.07;;;;;;;20.39;100.00;100932.84;5128683;23;20019;-79
2021/07/09 08:12:00;;;;;;;10.35;7.18;;;;;;;20.30;100.00;100936.13;5132436;28;20034;-80
2021/07/09 08:14:31;;;;;;;11.07;7.33;;;;;;;20.49;100.00;100933.88;5131075;28;20051;-80
2021/07/09 08:17:03;;;;;;;9.57;7.10;;;;;;;20.50;100.00;100927.63;5134651;28;20030;-81
2021/07/09 08:19:34;;;;;;;9.52;7.20;;;;;;;20.52;100.00;100928.38;5130760;28;20789;-81
2021/07/09 08:22:04;;;;;;;8.05;6.65;;;;;;;20.47;100.00;100922.53;5115100;28;20039;-81
2021/07/09 08:24:34;;;;;;;10.70;6.70;;;;;;;20.48;100.00;100924.22;5112459;29;20077;-80
2021/07/09 08:27:05;;;;;;;10.07;6.22;;;;;;;20.57;100.00;100923.59;5113161;29;20087;-81
2021/07/09 08:29:35;;;;;;;7.72;5.30;;;;;;;20.44;100.00;100921.91;5107393;28;20028;-80
2021/07/09 08:32:06;;;;;;;7.53;5.55;;;;;;;20.40;100.00;100923.94;5105409;29;20020;-80
2021/07/09 08:34:37;;;;;;;8.13;5.90;;;;;;;20.23;100.00;100918.94;5111600;28;20402;-81
2021/07/09 08:37:07;;;;;;;9.00;5.90;;;;;;;20.28;100.00;100919.47;5111155;29;20533;-81
2021/07/09 08:39:38;;;;;;;7.45;5.20;;;;;;;20.10;100.00;100923.41;5116629;28;20087;-81
2021/07/09 08:42:08;;;;;;;9.60;5.25;;;;;;;20.17;100.00;100922.03;5117358;29;20560;-81
2021/07/09 08:44:38;;;;;;;7.40;5.32;;;;;;;20.11;100.00;100914.47;5121589;28;20027;-81
2021/07/09 08:47:09;;;;;;;11.02;5.53;;;;;;;19.92;100.00;100921.16;5116136;29;20098;-80
2021/07/09 08:49:42;;;;;;;8.20;5.05;;;;;;;19.91;100.00;100909.66;5113770;29;20126;-81
2021/07/09 08:52:13;;;;;;;9.07;4.88;;;;;;;19.96;100.00;100910.19;5112645;29;20039;-80
2021/07/09 08:54:43;;;;;;;8.88;5.15;;;;;;;20.01;100.00;100913.41;5115670;28;20016;-81
2021/07/09 08:57:15;;;;;;;7.57;4.85;;;;;;;19.96;100.00;100915.50;5107670;29;20048;-80
2021/07/09 08:59:45;;;;;;;9.60;4.70;;;;;;;19.90;100.00;100909.75;5110989;29;20046;-81
2021/07/09 09:02:27;;;;;;;7.00;5.13;;;;;;;20.13;100.00;100912.56;5108916;29;20947;-81
2021/07/09 09:04:57;;;;;;;9.13;4.63;;;;;;;20.23;100.00;100918.94;5117060;29;20024;-81
2021/07/09 09:07:31;;;;;;;7.13;4.70;;;;;;;20.59;100.00;100904.88;5116879;28;20059;-81
2021/07/09 09:10:02;;;;;;;9.57;4.80;;;;;;;20.87;100.00;100908.16;5136367;28;20386;-81
2021/07/09 09:12:32;;;;;;;7.07;4.63;;;;;;;20.88;100.00;100913.31;5112822;28;20067;-81
2021/07/09 09:15:03;;;;;;;6.50;4.63;;;;;;;20.85;100.00;100908.25;5116905;28;20024;-81
2021/07/09 09:17:35;;;;;;;10.43;4.15;;;;;;;21.16;100.00;100907.69;5128456;28;20287;-81
2021/07/09 09:20:16;;;;;;;7.53;4.10;;;;;;;21.05;100.00;100914.78;5118504;28;20027;-82
2021/07/09 09:22:56;;;;;;;8.82;4.55;;;;;;;20.75;100.00;100908.97;5122863;29;20517;-80
2021/07/09 09:25:29;;;;;;;8.70;4.80;;;;;;;20.80;100.00;100914.81;5113812;28;20055;-80
2021/07/09 09:28:14;;;;;;;5.13;4.43;;;;;;;20.88;100.00;100923.13;5109717;29;20027;-80
2021/07/09 09:30:48;;;;;;;5.72;3.97;;;;;;;20.70;100.00;100921.75;5121970;29;20514;-81
2021/07/09 09:33:20;;;;;;;5.85;4.13;;;;;;;20.50;100.00;100913.50;5121931;28;20024;-80
2021/07/09 09:35:55;;;;;;;6.20;4.10;;;;;;;20.44;100.00;100912.13;5121796;28;20099;-80
2021/07/09 09:38:28;;;;;;;7.47;3.80;;;;;;;20.33;100.00;100914.69;5115352;28;20035;-80
2021/07/09 09:41:02;;;;;;;7.88;3.83;;;;;;;20.33;100.00;100913.84;5114630;29;20366;-80
2021/07/09 09:43:35;;;;;;;5.38;4.10;;;;;;;20.37;100.00;100916.19;5126281;28;20019;-81
2021/07/09 09:46:09;;;;;;;6.18;3.85;;;;;;;20.40;100.00;100910.66;5133489;28;20039;-80
2021/07/09 09:48:46;;;;;;;5.97;4.30;;;;;;;20.42;100.00;100913.19;5118834;29;20070;-81
2021/07/09 09:51:30;;;;;;;4.20;2.80;;;;;;;20.32;97.35;100912.97;5100003;29;20569;-81
2021/07/09 09:54:10;;;;;;;5.32;2.92;;;;;;;20.39;97.20;100914.25;5114504;29;20075;-80
2021/07/09 09:56:43;;;;;;;4.95;3.25;;;;;;;20.41;99.14;100928.28;5112669;29;20031;-81
2021/07/09 09:59:25;;;;;;;3.83;3.08;;;;;;;20.45;100.00;100924.44;5136634;28;20520;-80
2021/07/09 10:01:57;;;;;;;6.47;2.78;;;;;;;20.35;96.08;100926.06;5113130;28;20381;-80
2021/07/09 10:04:29;;;;;;;4.97;3.08;;;;;;;20.24;99.00;100931.25;5113365;29;20027;-80
2021/07/09 10:07:02;;;;;;;7.80;3.10;;;;;;;20.54;99.56;100922.94;5122996;28;20036;-80
2021/07/09 10:09:33;;;;;;;4.10;2.72;;;;;;;20.22;96.94;100934.97;5121521;28;20035;-80
2021/07/09 10:12:04;;;;;;;5.75;2.95;;;;;;;20.46;98.97;100927.97;5122880;29;20081;-80
2021/07/09 10:14:38;;;;;;;5.65;2.90;;;;;;;20.38;97.54;100927.63;5117115;29;20075;-79
2021/07/09 10:17:09;;;;;;;4.15;2.65;;;;;;;20.35;98.15;100927.84;5118841;28;20046;-80
2021/07/09 10:19:42;;;;;;;4.38;2.67;;;;;;;20.42;99.76;100918.50;5117437;29;20581;-80
2021/07/09 10:22:14;;;;;;;5.10;2.55;;;;;;;20.01;95.76;100934.63;5120814;29;20031;-80
2021/07/09 10:24:52;;;;;;;7.32;2.40;;;;;;;20.02;96.30;100931.06;5115793;28;20044;-81
2021/07/09 10:27:26;;;;;;;5.32;2.50;;;;;;;19.85;97.60;100931.31;5115311;29;20462;-80
2021/07/09 10:30:03;;;;;;;3.88;2.67;;;;;;;19.98;97.93;100923.38;5132962;28;20543;-80
2021/07/09 10:32:49;;;;;;;5.38;2.53;;;;;;;20.09;97.31;100932.31;5113085;29;20039;-81
2021/07/09 10:35:37;;;;;;;4.23;2.77;;;;;;;19.98;97.44;100918.88;5116038;28;20031;-80
2021/07/09 10:38:19;;;;;;;6.13;2.50;;;;;;;19.68;97.13;100926.31;5111819;29;20121;-81
2021/07/09 10:40:51;;;;;;;4.53;2.38;;;;;;;19.66;97.95;100917.59;5119607;28;20042;-81
2021/07/09 10:43:22;;;;;;;6.55;2.50;;;;;;;19.78;99.28;100905.31;5109875;29;20100;-81
2021/07/09 10:46:05;;;;;;;4.93;2.60;;;;;;;19.76;99.57;100908.06;5117630;29;20026;-80
2021/07/09 10:48:38;;;;;;;7.15;2.60;;;;;;;19.65;98.13;100913.22;5110545;29;20030;-80
2021/07/09 10:51:10;;;;;;;6.32;2.75;;;;;;;19.57;98.33;100915.56;5117415;28;20107;-80
2021/07/09 10:53:41;;;;;;;6.50;2.67;;;;;;;19.44;99.89;100912.00;5127079;28;20027;-81
2021/07/09 10:56:14;;;;;;;4.85;2.35;;;;;;;19.41;94.86;100909.56;5114325;28;20035;-80
2021/07/09 10:58:45;;;;;;;6.13;2.20;;;;;;;19.50;94.34;100908.09;5118589;28;20511;-81
2021/07/09 11:01:28;;;;;;;4.90;2.10;;;;;;;19.41;94.94;100912.22;5098846;29;20058;-81
2021/07/09 11:04:11;;;;;;;4.10;1.90;;;;;;;19.42;94.71;100907.78;5117704;29;20031;-81
2021/07/09 11:06:43;;;;;;;3.28;1.80;;;;;;;19.48;94.84;100910.84;5116736;29;20042;-81
2021/07/09 11:09:15;;;;;;;4.18;2.28;;;;;;;19.68;93.34;100902.44;5133305;28;20118;-81
2021/07/09 11:11:49;;;;;;;5.32;2.33;;;;;;;19.68;95.15;100913.03;5115660;28;20078;-81
2021/07/09 11:14:41;;;;;;;8.02;2.30;;;;;;;19.85;95.50;100911.88;5117357;29;20050;-81
2021/07/09 11:17:21;;;;;;;6.28;3.10;;;;;;;19.83;98.43;100906.69;5109794;29;20036;-81
2021/07/09 11:20:19;;;;;;;6.25;2.70;;;;;;;19.84;98.19;100911.06;5265901;27;20427;-82
2021/07/09 11:22:49;;;;;;;7.57;3.00;;;;;;;19.83;97.70;100909.34;5242758;28;20071;-81
2021/07/09 11:25:21;;;;;;;4.25;3.08;;;;;;;19.77;98.76;100904.44;5246373;28;22207;-81
2021/07/09 11:27:51;;;;;;;6.88;3.55;;;;;;;19.66;100.00;100914.09;5231681;28;20461;-81
2021/07/09 11:30:21;;;;;;;6.73;4.17;;;;;;;19.54;100.00;100902.50;5235063;28;20120;-81
2021/07/09 11:32:54;;;;;;;7.47;4.47;;;;;;;19.73;100.00;100904.75;5235347;28;20325;-81